This is the latest recevied weather packets stored in our database for station/object KF5WCW-1. If no packets are shown the sender has not sent any weather packets the latest 10 day(s).
| Time | Temp. | Humidity | Pressure | Rain* | Wind** | Luminosity | Snow |
|---|---|---|---|---|---|---|---|
| 1777490782 | 7.78° C | 47% | 0 hPa | 0 mm | - | - | - |
| 1777490482 | 10° C | 46% | 0 hPa | 0 mm | - | - | - |
| 1777490182 | 10.56° C | 38% | 0 hPa | 0 mm | - | - | - |
| 1777489882 | 11.11° C | 34% | 0 hPa | 0 mm | - | - | - |
| 1777489582 | 11.11° C | 34% | 0 hPa | 0 mm | - | - | - |
| 1777489282 | 11.67° C | 35% | 0 hPa | 0 mm | - | - | - |
| 1777488982 | 12.22° C | 35% | 0 hPa | 0 mm | - | - | - |
| 1777488682 | 11.67° C | 36% | 0 hPa | 0 mm | - | - | - |
| 1777488382 | 11.67° C | 35% | 0 hPa | 0 mm | - | - | - |
| 1777488082 | 11.67° C | 35% | 0 hPa | 0 mm | - | - | - |
| 1777487782 | 12.22° C | 33% | 0 hPa | 0 mm | - | - | - |
| 1777487482 | 11.67° C | 32% | 0 hPa | 0 mm | - | - | - |
| 1777487182 | 11.11° C | 38% | 0 hPa | 0 mm | - | - | - |
| 1777486882 | 10° C | 40% | 0 hPa | 0 mm | - | - | - |
| 1777486582 | 10° C | 41% | 0 hPa | 0 mm | - | - | - |
| 1777486283 | 10° C | 45% | 0 hPa | 0 mm | - | - | - |
| 1777485982 | 9.44° C | 43% | 0 hPa | 0 mm | - | - | - |
| 1777485682 | 10° C | 39% | 0 hPa | 0 mm | - | - | - |
| 1777485382 | 9.44° C | 43% | 0 hPa | 0 mm | - | - | - |
| 1777485083 | 8.33° C | 48% | 0 hPa | 0 mm | - | - | - |
| 1777484783 | 8.33° C | 53% | 0 hPa | 0 mm | - | - | - |
| 1777484483 | 8.33° C | 54% | 0 hPa | 0 mm | - | - | - |
| 1777484183 | 10° C | 48% | 0 hPa | 0 mm | - | - | - |
| 1777483883 | 10.56° C | 43% | 0 hPa | 0 mm | - | - | - |
| 1777483582 | 10.56° C | 42% | 0 hPa | 0 mm | - | - | - |
* Rain latest hour (hover to see other rain measurements)
** Current wind speed in m/s (hover to see current wind gust speed)